sensor_id;sensor_type;location;lat;lon;timestamp;pressure;altitude;pressure_sealevel;temperature;humidity
83246;BME280;73140;46.754;17.714;2024-03-23T00:54:16;99188.66;;;13.69;61.87
83246;BME280;73140;46.754;17.714;2024-03-23T00:56:45;99179.88;;;13.61;60.99
83246;BME280;73140;46.754;17.714;2024-03-23T00:59:11;99177.88;;;13.85;61.19
83246;BME280;73140;46.754;17.714;2024-03-23T01:01:45;99172.59;;;13.82;61.41
83246;BME280;73140;46.754;17.714;2024-03-23T01:04:11;99167.34;;;13.72;61.98
83246;BME280;73140;46.754;17.714;2024-03-23T01:06:39;99170.81;;;13.81;60.54
83246;BME280;73140;46.754;17.714;2024-03-23T01:09:05;99152.44;;;13.58;62.17
83246;BME280;73140;46.754;17.714;2024-03-23T01:11:39;99155.88;;;13.70;61.26
83246;BME280;73140;46.754;17.714;2024-03-23T01:14:15;99154.09;;;13.69;62.02
83246;BME280;73140;46.754;17.714;2024-03-23T01:16:51;99137.38;;;13.57;61.43
83246;BME280;73140;46.754;17.714;2024-03-23T01:19:37;99160.41;;;13.59;62.30
83246;BME280;73140;46.754;17.714;2024-03-23T01:22:05;99148.09;;;13.52;62.48
83246;BME280;73140;46.754;17.714;2024-03-23T01:24:41;99133.16;;;13.39;63.02
83246;BME280;73140;46.754;17.714;2024-03-23T01:27:08;99145.47;;;13.45;63.00
83246;BME280;73140;46.754;17.714;2024-03-23T01:29:46;99135.72;;;13.48;62.25
83246;BME280;73140;46.754;17.714;2024-03-23T01:32:30;99128.78;;;13.32;63.37
83246;BME280;73140;46.754;17.714;2024-03-23T01:35:23;99123.44;;;13.35;63.27
83246;BME280;73140;46.754;17.714;2024-03-23T01:37:55;99122.56;;;13.33;63.69
83246;BME280;73140;46.754;17.714;2024-03-23T01:40:22;99127.84;;;13.38;63.96
83246;BME280;73140;46.754;17.714;2024-03-23T01:42:55;99130.44;;;13.42;63.69
83246;BME280;73140;46.754;17.714;2024-03-23T01:45:33;99127.16;;;13.14;65.11
83246;BME280;73140;46.754;17.714;2024-03-23T01:48:05;99104.16;;;13.12;64.85
83246;BME280;73140;46.754;17.714;2024-03-23T01:50:34;99114.78;;;13.12;65.35
83246;BME280;73140;46.754;17.714;2024-03-23T01:53:14;99105.97;;;13.04;65.76
83246;BME280;73140;46.754;17.714;2024-03-23T01:55:57;99112.09;;;13.13;65.33
83246;BME280;73140;46.754;17.714;2024-03-23T01:58:29;99120.97;;;13.17;65.80
83246;BME280;73140;46.754;17.714;2024-03-23T02:00:57;99106.81;;;13.06;65.43
83246;BME280;73140;46.754;17.714;2024-03-23T02:03:45;99108.53;;;13.19;64.94
83246;BME280;73140;46.754;17.714;2024-03-23T02:06:18;99112.00;;;13.25;64.71
83246;BME280;73140;46.754;17.714;2024-03-23T02:09:10;99105.03;;;13.17;65.10
83246;BME280;73140;46.754;17.714;2024-03-23T02:11:37;99095.22;;;13.23;65.35
83246;BME280;73140;46.754;17.714;2024-03-23T02:14:03;99106.75;;;13.19;65.29
83246;BME280;73140;46.754;17.714;2024-03-23T02:16:32;99111.19;;;13.19;65.01
83246;BME280;73140;46.754;17.714;2024-03-23T02:19:00;99089.00;;;13.24;66.22
83246;BME280;73140;46.754;17.714;2024-03-23T02:21:26;99086.44;;;13.14;65.73
83246;BME280;73140;46.754;17.714;2024-03-23T02:23:54;99082.13;;;12.96;66.64
83246;BME280;73140;46.754;17.714;2024-03-23T02:26:20;99097.16;;;12.99;67.00
83246;BME280;73140;46.754;17.714;2024-03-23T02:28:47;99076.81;;;12.95;66.75
83246;BME280;73140;46.754;17.714;2024-03-23T02:31:13;99085.69;;;12.95;67.00
83246;BME280;73140;46.754;17.714;2024-03-23T02:33:41;99074.22;;;12.92;66.77
83246;BME280;73140;46.754;17.714;2024-03-23T02:36:08;99069.81;;;12.88;67.07
83246;BME280;73140;46.754;17.714;2024-03-23T02:38:41;99074.13;;;13.01;67.46
83246;BME280;73140;46.754;17.714;2024-03-23T02:41:17;99069.78;;;12.92;66.36
83246;BME280;73140;46.754;17.714;2024-03-23T02:43:51;99062.63;;;12.99;66.78
83246;BME280;73140;46.754;17.714;2024-03-23T02:46:17;99044.97;;;12.96;66.67
83246;BME280;73140;46.754;17.714;2024-03-23T02:48:44;99045.88;;;12.91;66.97
83246;BME280;73140;46.754;17.714;2024-03-23T02:51:10;99067.88;;;13.08;66.51
83246;BME280;73140;46.754;17.714;2024-03-23T02:53:39;99034.25;;;13.08;65.84
83246;BME280;73140;46.754;17.714;2024-03-23T02:56:28;99037.78;;;13.12;66.05
83246;BME280;73140;46.754;17.714;2024-03-23T02:58:54;99039.47;;;13.17;66.84
83246;BME280;73140;46.754;17.714;2024-03-23T03:01:27;99046.56;;;13.18;65.22
83246;BME280;73140;46.754;17.714;2024-03-23T03:03:53;99049.19;;;13.23;65.43
83246;BME280;73140;46.754;17.714;2024-03-23T03:06:23;99046.47;;;13.27;64.73
83246;BME280;73140;46.754;17.714;2024-03-23T03:08:49;99028.84;;;13.20;65.34
83246;BME280;73140;46.754;17.714;2024-03-23T03:11:21;99042.97;;;13.24;65.83
83246;BME280;73140;46.754;17.714;2024-03-23T03:13:51;99029.81;;;13.06;66.44
83246;BME280;73140;46.754;17.714;2024-03-23T03:16:21;99041.16;;;13.26;66.71
83246;BME280;73140;46.754;17.714;2024-03-23T03:19:15;99026.19;;;13.20;65.61
83246;BME280;73140;46.754;17.714;2024-03-23T03:21:42;99041.22;;;13.21;64.68
83246;BME280;73140;46.754;17.714;2024-03-23T03:24:23;99028.03;;;13.11;66.48
83246;BME280;73140;46.754;17.714;2024-03-23T03:26:49;99020.94;;;13.14;65.28
83246;BME280;73140;46.754;17.714;2024-03-23T03:29:27;99013.91;;;13.04;65.81
83246;BME280;73140;46.754;17.714;2024-03-23T03:32:04;99019.19;;;13.06;65.45
83246;BME280;73140;46.754;17.714;2024-03-23T03:34:30;99004.19;;;13.02;65.70
83246;BME280;73140;46.754;17.714;2024-03-23T03:36:57;99015.69;;;13.04;66.26
83246;BME280;73140;46.754;17.714;2024-03-23T03:39:25;99017.47;;;13.05;65.73
83246;BME280;73140;46.754;17.714;2024-03-23T03:41:52;99008.56;;;13.09;65.68
83246;BME280;73140;46.754;17.714;2024-03-23T03:44:20;98999.75;;;13.02;65.51
83246;BME280;73140;46.754;17.714;2024-03-23T03:46:46;99024.50;;;13.09;65.78
83246;BME280;73140;46.754;17.714;2024-03-23T03:49:12;99000.66;;;13.04;64.69
83246;BME280;73140;46.754;17.714;2024-03-23T03:51:38;99000.59;;;13.12;65.56
83246;BME280;73140;46.754;17.714;2024-03-23T03:54:04;99015.69;;;13.04;66.04
83246;BME280;73140;46.754;17.714;2024-03-23T03:56:38;99008.63;;;13.03;66.25
83246;BME280;73140;46.754;17.714;2024-03-23T03:59:07;98994.31;;;13.19;65.01
83246;BME280;73140;46.754;17.714;2024-03-23T04:01:38;98982.00;;;13.12;65.40
83246;BME280;73140;46.754;17.714;2024-03-23T04:04:05;98983.78;;;13.13;64.68
83246;BME280;73140;46.754;17.714;2024-03-23T04:06:32;98974.09;;;13.03;65.98
83246;BME280;73140;46.754;17.714;2024-03-23T04:09:18;98972.28;;;13.08;66.08
83246;BME280;73140;46.754;17.714;2024-03-23T04:11:48;98990.81;;;13.17;66.41
83246;BME280;73140;46.754;17.714;2024-03-23T04:14:14;98957.19;;;13.16;64.97
83246;BME280;73140;46.754;17.714;2024-03-23T04:16:42;98976.53;;;13.25;66.04
83246;BME280;73140;46.754;17.714;2024-03-23T04:21:52;98976.53;;;13.27;64.56
83246;BME280;73140;46.754;17.714;2024-03-23T04:24:21;98958.78;;;13.32;65.02
83246;BME280;73140;46.754;17.714;2024-03-23T04:26:48;98963.16;;;13.36;64.63
83246;BME280;73140;46.754;17.714;2024-03-23T04:29:18;98972.84;;;13.40;65.27
83246;BME280;73140;46.754;17.714;2024-03-23T04:32:00;98941.91;;;13.33;64.31
83246;BME280;73140;46.754;17.714;2024-03-23T04:34:33;98953.31;;;13.44;64.30
83246;BME280;73140;46.754;17.714;2024-03-23T04:37:20;98953.38;;;13.38;64.24
83246;BME280;73140;46.754;17.714;2024-03-23T04:39:50;98978.88;;;13.53;63.73
83246;BME280;73140;46.754;17.714;2024-03-23T04:42:16;98956.06;;;13.37;65.01
83246;BME280;73140;46.754;17.714;2024-03-23T04:44:45;98971.78;;;13.53;63.76
83246;BME280;73140;46.754;17.714;2024-03-23T04:47:14;98967.34;;;13.54;64.64
83246;BME280;73140;46.754;17.714;2024-03-23T04:49:46;98952.25;;;13.59;63.88
83246;BME280;73140;46.754;17.714;2024-03-23T04:52:12;98936.53;;;13.41;64.87
83246;BME280;73140;46.754;17.714;2024-03-23T04:54:42;98946.97;;;13.54;63.39
83246;BME280;73140;46.754;17.714;2024-03-23T04:58:00;98947.19;;;13.39;63.63
83246;BME280;73140;46.754;17.714;2024-03-23T05:01:01;98958.69;;;13.40;64.58
83246;BME280;73140;46.754;17.714;2024-03-23T05:03:32;98980.75;;;13.46;64.13
83246;BME280;73140;46.754;17.714;2024-03-23T05:05:58;98960.38;;;13.45;64.08
83246;BME280;73140;46.754;17.714;2024-03-23T05:14:14;98976.53;;;13.27;65.57
83246;BME280;73140;46.754;17.714;2024-03-23T05:16:45;98964.97;;;13.33;64.83
83246;BME280;73140;46.754;17.714;2024-03-23T05:19:15;98956.13;;;13.31;64.89
83246;BME280;73140;46.754;17.714;2024-03-23T05:25:25;98975.50;;;13.40;65.04
83246;BME280;73140;46.754;17.714;2024-03-23T05:50:46;98951.22;;;13.69;64.65
83246;BME280;73140;46.754;17.714;2024-03-23T05:53:14;98929.19;;;13.61;64.58
83246;BME280;73140;46.754;17.714;2024-03-23T05:56:01;98925.41;;;13.77;63.69
83246;BME280;73140;46.754;17.714;2024-03-23T06:02:24;98913.78;;;13.84;63.70
83246;BME280;73140;46.754;17.714;2024-03-23T06:05:08;98914.72;;;13.82;63.74
83246;BME280;73140;46.754;17.714;2024-03-23T06:07:41;98917.38;;;13.82;63.48
83246;BME280;73140;46.754;17.714;2024-03-23T06:10:12;98927.94;;;13.88;63.61
83246;BME280;73140;46.754;17.714;2024-03-23T06:12:41;98895.28;;;13.78;62.90
83246;BME280;73140;46.754;17.714;2024-03-23T06:15:11;98906.69;;;13.85;63.01
83246;BME280;73140;46.754;17.714;2024-03-23T06:17:38;98903.09;;;13.89;62.68
83246;BME280;73140;46.754;17.714;2024-03-23T06:20:08;98896.81;;;13.93;62.05
83246;BME280;73140;46.754;17.714;2024-03-23T06:22:53;98918.75;;;14.08;62.15
83246;BME280;73140;46.754;17.714;2024-03-23T06:25:22;98900.94;;;14.15;60.61
83246;BME280;73140;46.754;17.714;2024-03-23T06:28:03;98904.38;;;14.20;62.51
83246;BME280;73140;46.754;17.714;2024-03-23T06:30:37;98924.63;;;14.30;61.11
83246;BME280;73140;46.754;17.714;2024-03-23T06:33:06;98914.94;;;14.26;62.49
83246;BME280;73140;46.754;17.714;2024-03-23T06:36:00;98899.63;;;14.42;60.94
83246;BME280;73140;46.754;17.714;2024-03-23T06:38:51;98896.03;;;14.46;62.03
83246;BME280;73140;46.754;17.714;2024-03-23T06:41:28;98910.81;;;14.62;61.52
83246;BME280;73140;46.754;17.714;2024-03-23T06:43:54;98918.56;;;14.76;61.62
83246;BME280;73140;46.754;17.714;2024-03-23T06:46:23;98898.22;;;14.72;61.03
83246;BME280;73140;46.754;17.714;2024-03-23T06:48:58;98895.69;;;14.62;61.39
83246;BME280;73140;46.754;17.714;2024-03-23T06:52:03;98882.06;;;14.81;61.81
83246;BME280;73140;46.754;17.714;2024-03-23T06:54:32;98894.78;;;15.11;61.00
83246;BME280;73140;46.754;17.714;2024-03-23T06:57:02;98887.75;;;15.08;60.44
83246;BME280;73140;46.754;17.714;2024-03-23T07:06:02;98892.63;;;15.30;59.89
83246;BME280;73140;46.754;17.714;2024-03-23T07:09:04;98898.38;;;15.54;60.07
83246;BME280;73140;46.754;17.714;2024-03-23T07:11:44;98872.19;;;15.73;59.74
83246;BME280;73140;46.754;17.714;2024-03-23T07:14:10;98880.63;;;15.92;59.01
83246;BME280;73140;46.754;17.714;2024-03-23T07:16:41;98873.00;;;16.14;59.34
83246;BME280;73140;46.754;17.714;2024-03-23T07:19:26;98875.56;;;16.18;60.19
83246;BME280;73140;46.754;17.714;2024-03-23T07:21:58;98858.38;;;16.30;58.16
83246;BME280;73140;46.754;17.714;2024-03-23T07:24:50;98856.00;;;16.53;57.77
83246;BME280;73140;46.754;17.714;2024-03-23T07:27:28;98846.50;;;16.77;57.47
83246;BME280;73140;46.754;17.714;2024-03-23T07:33:15;98853.19;;;16.91;55.09
83246;BME280;73140;46.754;17.714;2024-03-23T07:35:47;98841.41;;;17.29;57.87
83246;BME280;73140;46.754;17.714;2024-03-23T07:38:15;98847.75;;;17.56;54.95
83246;BME280;73140;46.754;17.714;2024-03-23T07:40:41;98831.72;;;17.56;55.37
83246;BME280;73140;46.754;17.714;2024-03-23T07:43:09;98833.44;;;17.86;54.11
83246;BME280;73140;46.754;17.714;2024-03-23T07:45:56;98816.50;;;17.86;53.06
83246;BME280;73140;46.754;17.714;2024-03-23T07:48:22;98825.78;;;17.76;53.54
83246;BME280;73140;46.754;17.714;2024-03-23T07:50:59;98826.66;;;18.30;52.70
83246;BME280;73140;46.754;17.714;2024-03-23T07:53:25;98807.72;;;18.35;53.06
83246;BME280;73140;46.754;17.714;2024-03-23T07:55:57;98840.53;;;18.41;52.97
83246;BME280;73140;46.754;17.714;2024-03-23T07:58:26;98824.13;;;18.51;51.88
83246;BME280;73140;46.754;17.714;2024-03-23T08:00:52;98816.66;;;18.62;51.64
83246;BME280;73140;46.754;17.714;2024-03-23T08:03:18;98835.13;;;18.94;54.44
83246;BME280;73140;46.754;17.714;2024-03-23T08:05:47;98822.53;;;18.73;50.37
83246;BME280;73140;46.754;17.714;2024-03-23T08:08:40;98813.78;;;18.66;52.36
83246;BME280;73140;46.754;17.714;2024-03-23T08:11:12;98836.34;;;18.61;51.14
83246;BME280;73140;46.754;17.714;2024-03-23T08:13:58;98821.16;;;18.61;52.34
83246;BME280;73140;46.754;17.714;2024-03-23T08:16:25;98821.88;;;18.12;54.66
83246;BME280;73140;46.754;17.714;2024-03-23T08:18:51;98809.28;;;18.16;53.33
83246;BME280;73140;46.754;17.714;2024-03-23T08:21:20;98814.81;;;18.11;52.66
83246;BME280;73140;46.754;17.714;2024-03-23T08:23:49;98813.00;;;18.38;54.76
83246;BME280;73140;46.754;17.714;2024-03-23T08:26:16;98803.97;;;18.40;53.14
83246;BME280;73140;46.754;17.714;2024-03-23T08:28:49;98807.78;;;18.33;51.11
83246;BME280;73140;46.754;17.714;2024-03-23T08:31:24;98793.13;;;18.19;50.74
83246;BME280;73140;46.754;17.714;2024-03-23T08:33:50;98782.03;;;18.29;53.40
83246;BME280;73140;46.754;17.714;2024-03-23T08:36:16;98777.75;;;18.50;52.56
83246;BME280;73140;46.754;17.714;2024-03-23T08:39:04;98784.59;;;18.59;51.27
83246;BME280;73140;46.754;17.714;2024-03-23T08:41:44;98788.88;;;18.64;52.54
83246;BME280;73140;46.754;17.714;2024-03-23T08:44:17;98773.34;;;18.48;50.22
83246;BME280;73140;46.754;17.714;2024-03-23T08:46:57;98783.16;;;18.49;50.27
83246;BME280;73140;46.754;17.714;2024-03-23T08:49:23;98771.72;;;18.70;49.77
83246;BME280;73140;46.754;17.714;2024-03-23T08:51:52;98779.50;;;19.01;49.82
83246;BME280;73140;46.754;17.714;2024-03-23T08:54:21;98766.56;;;19.12;49.04
83246;BME280;73140;46.754;17.714;2024-03-23T08:56:51;98767.78;;;19.03;47.98
83246;BME280;73140;46.754;17.714;2024-03-23T08:59:22;98760.75;;;19.24;48.60
83246;BME280;73140;46.754;17.714;2024-03-23T09:01:55;98752.88;;;19.19;48.96
83246;BME280;73140;46.754;17.714;2024-03-23T09:04:25;98751.22;;;19.38;46.71
83246;BME280;73140;46.754;17.714;2024-03-23T09:06:57;98755.88;;;19.33;48.31
83246;BME280;73140;46.754;17.714;2024-03-23T09:09:25;98743.13;;;19.40;47.12
83246;BME280;73140;46.754;17.714;2024-03-23T09:11:51;98757.31;;;19.20;47.94
83246;BME280;73140;46.754;17.714;2024-03-23T09:14:18;98734.53;;;19.30;47.17
83246;BME280;73140;46.754;17.714;2024-03-23T09:16:58;98738.53;;;19.20;45.69
83246;BME280;73140;46.754;17.714;2024-03-23T09:19:34;98743.66;;;19.03;46.63
83246;BME280;73140;46.754;17.714;2024-03-23T09:22:08;98737.56;;;19.21;46.44
83246;BME280;73140;46.754;17.714;2024-03-23T09:24:40;98723.13;;;19.02;47.21
83246;BME280;73140;46.754;17.714;2024-03-23T09:27:06;98729.53;;;18.98;45.73
83246;BME280;73140;46.754;17.714;2024-03-23T09:29:32;98735.06;;;18.94;46.22
83246;BME280;73140;46.754;17.714;2024-03-23T09:32:00;98713.34;;;18.78;47.16
83246;BME280;73140;46.754;17.714;2024-03-23T09:34:27;98720.69;;;18.96;50.76
83246;BME280;73140;46.754;17.714;2024-03-23T09:36:57;98713.56;;;19.18;47.78
83246;BME280;73140;46.754;17.714;2024-03-23T09:39:26;98721.88;;;19.34;46.92
83246;BME280;73140;46.754;17.714;2024-03-23T09:41:56;98719.44;;;19.51;48.23
83246;BME280;73140;46.754;17.714;2024-03-23T09:44:28;98704.81;;;19.36;46.50
83246;BME280;73140;46.754;17.714;2024-03-23T09:49:57;98686.47;;;19.69;46.58
83246;BME280;73140;46.754;17.714;2024-03-23T09:52:23;98685.28;;;19.76;44.78
83246;BME280;73140;46.754;17.714;2024-03-23T09:55:03;98687.13;;;19.96;44.75
83246;BME280;73140;46.754;17.714;2024-03-23T09:57:32;98679.34;;;19.90;46.25
83246;BME280;73140;46.754;17.714;2024-03-23T10:00:20;98693.88;;;20.26;47.23
83246;BME280;73140;46.754;17.714;2024-03-23T10:02:55;98673.72;;;20.16;42.73
83246;BME280;73140;46.754;17.714;2024-03-23T10:05:28;98665.00;;;19.91;43.83
83246;BME280;73140;46.754;17.714;2024-03-23T10:07:55;98678.97;;;19.99;45.08
83246;BME280;73140;46.754;17.714;2024-03-23T10:10:21;98672.66;;;20.41;44.38
83246;BME280;73140;46.754;17.714;2024-03-23T10:12:49;98661.09;;;20.39;44.35
83246;BME280;73140;46.754;17.714;2024-03-23T10:15:27;98654.53;;;20.46;42.16
83246;BME280;73140;46.754;17.714;2024-03-23T10:17:55;98652.50;;;20.51;41.61
83246;BME280;73140;46.754;17.714;2024-03-23T10:20:22;98646.19;;;20.52;42.42
83246;BME280;73140;46.754;17.714;2024-03-23T10:22:51;98646.03;;;20.55;42.72
83246;BME280;73140;46.754;17.714;2024-03-23T10:25:23;98659.25;;;20.41;41.72
83246;BME280;73140;46.754;17.714;2024-03-23T10:27:58;98643.66;;;20.49;43.61
83246;BME280;73140;46.754;17.714;2024-03-23T10:30:29;98637.75;;;20.41;42.00
83246;BME280;73140;46.754;17.714;2024-03-23T10:33:11;98634.72;;;20.48;42.59
83246;BME280;73140;46.754;17.714;2024-03-23T10:35:47;98638.03;;;20.35;42.00
83246;BME280;73140;46.754;17.714;2024-03-23T10:38:35;98625.38;;;19.96;43.02
83246;BME280;73140;46.754;17.714;2024-03-23T10:41:16;98615.72;;;20.12;43.65
83246;BME280;73140;46.754;17.714;2024-03-23T10:43:44;98612.00;;;20.35;44.07
83246;BME280;73140;46.754;17.714;2024-03-23T10:46:25;98606.22;;;20.44;41.39
83246;BME280;73140;46.754;17.714;2024-03-23T10:49:00;98599.78;;;20.67;40.80
83246;BME280;73140;46.754;17.714;2024-03-23T10:51:29;98612.34;;;20.48;41.59
83246;BME280;73140;46.754;17.714;2024-03-23T10:54:04;98599.41;;;20.74;41.40
83246;BME280;73140;46.754;17.714;2024-03-23T10:56:35;98589.03;;;20.67;41.54
83246;BME280;73140;46.754;17.714;2024-03-23T10:59:02;98597.25;;;20.83;41.71
83246;BME280;73140;46.754;17.714;2024-03-23T11:01:54;98602.34;;;20.70;42.47
83246;BME280;73140;46.754;17.714;2024-03-23T11:04:29;98583.13;;;20.59;41.46
83246;BME280;73140;46.754;17.714;2024-03-23T11:09:44;98588.81;;;20.53;41.19
83246;BME280;73140;46.754;17.714;2024-03-23T11:12:42;98562.50;;;20.41;42.52
83246;BME280;73140;46.754;17.714;2024-03-23T11:15:11;98561.06;;;20.71;42.97
83246;BME280;73140;46.754;17.714;2024-03-23T11:17:38;98547.09;;;21.00;41.80
83246;BME280;73140;46.754;17.714;2024-03-23T11:20:24;98554.22;;;21.01;40.83
83246;BME280;73140;46.754;17.714;2024-03-23T11:23:27;98545.59;;;20.76;42.08
83246;BME280;73140;46.754;17.714;2024-03-23T11:25:54;98539.56;;;20.71;41.30
83246;BME280;73140;46.754;17.714;2024-03-23T11:28:21;98531.13;;;20.60;42.75
83246;BME280;73140;46.754;17.714;2024-03-23T11:30:47;98528.59;;;20.57;41.37
83246;BME280;73140;46.754;17.714;2024-03-23T11:33:19;98530.72;;;20.69;44.44
83246;BME280;73140;46.754;17.714;2024-03-23T11:35:45;98512.41;;;20.77;42.01
83246;BME280;73140;46.754;17.714;2024-03-23T11:38:15;98528.81;;;20.71;44.62
83246;BME280;73140;46.754;17.714;2024-03-23T11:40:56;98516.41;;;20.50;40.83
83246;BME280;73140;46.754;17.714;2024-03-23T11:43:25;98510.81;;;20.73;41.97
83246;BME280;73140;46.754;17.714;2024-03-23T11:45:52;98511.22;;;20.64;43.96
83246;BME280;73140;46.754;17.714;2024-03-23T11:48:19;98493.63;;;20.75;42.80
83246;BME280;73140;46.754;17.714;2024-03-23T11:50:48;98500.44;;;21.01;43.14
83246;BME280;73140;46.754;17.714;2024-03-23T11:53:16;98487.38;;;20.75;42.63
83246;BME280;73140;46.754;17.714;2024-03-23T11:55:46;98502.06;;;20.68;42.97
83246;BME280;73140;46.754;17.714;2024-03-23T12:01:27;98487.25;;;20.59;42.98
83246;BME280;73140;46.754;17.714;2024-03-23T12:03:56;98498.94;;;20.77;43.89
83246;BME280;73140;46.754;17.714;2024-03-23T12:06:22;98474.44;;;20.83;44.57
83246;BME280;73140;46.754;17.714;2024-03-23T12:08:51;98479.38;;;20.92;42.96
83246;BME280;73140;46.754;17.714;2024-03-23T12:11:18;98470.97;;;20.81;44.28
83246;BME280;73140;46.754;17.714;2024-03-23T12:13:46;98469.47;;;20.57;41.83
83246;BME280;73140;46.754;17.714;2024-03-23T12:16:24;98470.97;;;20.62;44.47
83246;BME280;73140;46.754;17.714;2024-03-23T12:18:53;98470.84;;;20.65;42.84
83246;BME280;73140;46.754;17.714;2024-03-23T12:21:30;98455.72;;;20.63;41.24
83246;BME280;73140;46.754;17.714;2024-03-23T12:23:56;98468.75;;;20.53;42.46
83246;BME280;73140;46.754;17.714;2024-03-23T12:26:24;98455.44;;;20.13;41.74
83246;BME280;73140;46.754;17.714;2024-03-23T12:28:52;98455.59;;;20.10;43.50
83246;BME280;73140;46.754;17.714;2024-03-23T12:31:18;98448.47;;;20.09;44.04
83246;BME280;73140;46.754;17.714;2024-03-23T12:33:46;98451.09;;;20.10;42.72
83246;BME280;73140;46.754;17.714;2024-03-23T12:36:19;98460.66;;;19.97;42.57
83246;BME280;73140;46.754;17.714;2024-03-23T12:38:46;98433.94;;;19.75;43.33
83246;BME280;73140;46.754;17.714;2024-03-23T12:41:12;98436.53;;;19.77;43.54
83246;BME280;73140;46.754;17.714;2024-03-23T12:43:43;98445.69;;;19.73;43.79
83246;BME280;73140;46.754;17.714;2024-03-23T12:46:09;98430.75;;;19.67;43.34
83246;BME280;73140;46.754;17.714;2024-03-23T12:48:39;98426.38;;;19.65;42.88
83246;BME280;73140;46.754;17.714;2024-03-23T12:51:30;98428.78;;;19.71;44.52
83246;BME280;73140;46.754;17.714;2024-03-23T12:54:00;98422.59;;;19.69;43.62
83246;BME280;73140;46.754;17.714;2024-03-23T12:56:26;98409.66;;;19.78;46.11
83246;BME280;73140;46.754;17.714;2024-03-23T12:58:56;98395.13;;;19.82;42.87
83246;BME280;73140;46.754;17.714;2024-03-23T13:01:37;98403.03;;;20.04;43.13
83246;BME280;73140;46.754;17.714;2024-03-23T13:06:42;98401.06;;;20.08;42.70
83246;BME280;73140;46.754;17.714;2024-03-23T13:09:08;98379.69;;;20.06;43.03
83246;BME280;73140;46.754;17.714;2024-03-23T13:11:34;98383.59;;;20.18;44.15
83246;BME280;73140;46.754;17.714;2024-03-23T13:14:18;98376.63;;;20.33;42.40
83246;BME280;73140;46.754;17.714;2024-03-23T13:17:08;98378.00;;;20.41;43.12
83246;BME280;73140;46.754;17.714;2024-03-23T13:19:34;98352.06;;;20.40;42.62
83246;BME280;73140;46.754;17.714;2024-03-23T13:22:02;98374.28;;;20.44;42.94
83246;BME280;73140;46.754;17.714;2024-03-23T13:24:44;98365.28;;;20.45;43.89
83246;BME280;73140;46.754;17.714;2024-03-23T13:27:15;98370.50;;;20.48;40.95
83246;BME280;73140;46.754;17.714;2024-03-23T13:29:43;98364.13;;;20.32;42.64
83246;BME280;73140;46.754;17.714;2024-03-23T13:32:15;98351.69;;;20.31;41.90
83246;BME280;73140;46.754;17.714;2024-03-23T13:34:46;98345.81;;;20.40;43.72
83246;BME280;73140;46.754;17.714;2024-03-23T13:37:17;98347.72;;;20.38;43.61
83246;BME280;73140;46.754;17.714;2024-03-23T13:39:44;98345.38;;;20.49;42.60
83246;BME280;73140;46.754;17.714;2024-03-23T13:42:16;98349.00;;;20.48;42.51
83246;BME280;73140;46.754;17.714;2024-03-23T13:44:54;98345.53;;;20.46;41.04
83246;BME280;73140;46.754;17.714;2024-03-23T13:47:20;98336.66;;;20.44;41.43
83246;BME280;73140;46.754;17.714;2024-03-23T13:49:49;98330.69;;;20.56;40.58
83246;BME280;73140;46.754;17.714;2024-03-23T13:52:24;98326.59;;;20.66;40.21
83246;BME280;73140;46.754;17.714;2024-03-23T13:54:59;98344.91;;;20.58;40.01
83246;BME280;73140;46.754;17.714;2024-03-23T14:01:01;98325.84;;;20.62;40.45
83246;BME280;73140;46.754;17.714;2024-03-23T14:03:36;98316.75;;;20.48;39.24
83246;BME280;73140;46.754;17.714;2024-03-23T14:07:04;98302.84;;;20.40;38.89
83246;BME280;73140;46.754;17.714;2024-03-23T14:13:35;98311.53;;;20.45;40.15
83246;BME280;73140;46.754;17.714;2024-03-23T14:27:26;98317.81;;;20.26;38.35
83246;BME280;73140;46.754;17.714;2024-03-23T14:31:11;98303.75;;;20.21;41.62
83246;BME280;73140;46.754;17.714;2024-03-23T14:33:54;98307.66;;;20.33;38.38
83246;BME280;73140;46.754;17.714;2024-03-23T14:39:58;98295.72;;;20.39;39.88
83246;BME280;73140;46.754;17.714;2024-03-23T14:42:33;98298.88;;;20.47;39.65
83246;BME280;73140;46.754;17.714;2024-03-23T14:45:02;98297.88;;;20.49;40.38
83246;BME280;73140;46.754;17.714;2024-03-23T14:48:02;98303.41;;;20.46;40.28
83246;BME280;73140;46.754;17.714;2024-03-23T14:50:36;98317.16;;;20.40;40.31
83246;BME280;73140;46.754;17.714;2024-03-23T14:53:02;98308.31;;;20.38;40.50
83246;BME280;73140;46.754;17.714;2024-03-23T14:59:07;98315.75;;;20.50;40.86
83246;BME280;73140;46.754;17.714;2024-03-23T15:01:33;98319.28;;;20.51;41.01
83246;BME280;73140;46.754;17.714;2024-03-23T15:04:01;98293.94;;;20.73;40.46
83246;BME280;73140;46.754;17.714;2024-03-23T15:07:12;98300.78;;;20.96;40.52
83246;BME280;73140;46.754;17.714;2024-03-23T15:13:49;98290.13;;;21.76;39.61
83246;BME280;73140;46.754;17.714;2024-03-23T15:16:51;98289.78;;;21.82;37.90
83246;BME280;73140;46.754;17.714;2024-03-23T15:23:16;98296.03;;;21.51;37.36
83246;BME280;73140;46.754;17.714;2024-03-23T15:26:01;98289.59;;;21.54;38.36
83246;BME280;73140;46.754;17.714;2024-03-23T15:28:49;98292.72;;;21.62;37.38
83246;BME280;73140;46.754;17.714;2024-03-23T15:31:36;98301.56;;;21.48;38.29
83246;BME280;73140;46.754;17.714;2024-03-23T15:34:02;98303.53;;;21.45;37.71
83246;BME280;73140;46.754;17.714;2024-03-23T15:36:30;98303.78;;;21.25;37.31
83246;BME280;73140;46.754;17.714;2024-03-23T15:39:07;98308.78;;;21.15;37.03
83246;BME280;73140;46.754;17.714;2024-03-23T15:41:47;98319.38;;;20.84;37.89
83246;BME280;73140;46.754;17.714;2024-03-23T15:45:23;98310.28;;;20.69;39.52
83246;BME280;73140;46.754;17.714;2024-03-23T15:48:13;98301.50;;;20.48;38.76
83246;BME280;73140;46.754;17.714;2024-03-23T16:14:42;98297.16;;;19.55;40.87